createdAt,value
2018-02-13T00:00:38.981Z,0.00
2018-02-13T00:01:38.831Z,0.00
2018-02-13T00:02:38.690Z,0.00
2018-02-13T00:03:38.560Z,0.00
2018-02-13T00:04:38.414Z,0.00
2018-02-13T00:05:38.277Z,0.00
2018-02-13T00:06:38.137Z,0.00
2018-02-13T00:07:38.001Z,0.00
2018-02-13T00:08:37.859Z,0.00
2018-02-13T00:09:37.723Z,0.00
2018-02-13T00:10:37.583Z,0.00
2018-02-13T00:11:37.444Z,0.00
2018-02-13T00:12:37.307Z,0.00
2018-02-13T00:13:37.167Z,0.00
2018-02-13T00:14:37.028Z,0.00
2018-02-13T00:15:36.889Z,0.00
2018-02-13T00:16:36.752Z,0.00
2018-02-13T00:17:36.613Z,0.00
2018-02-13T00:18:36.472Z,0.00
2018-02-13T00:19:36.340Z,0.00
2018-02-13T00:20:36.197Z,0.00
2018-02-13T00:21:36.058Z,0.00
2018-02-13T00:22:35.921Z,0.00
2018-02-13T00:23:35.780Z,0.00
2018-02-13T00:24:35.647Z,0.00
2018-02-13T00:25:35.506Z,0.00
2018-02-13T00:26:35.365Z,0.00
2018-02-13T00:27:35.227Z,0.00
2018-02-13T00:28:35.087Z,0.00
2018-02-13T00:29:34.948Z,0.00
2018-02-13T00:30:34.809Z,0.00
2018-02-13T00:31:34.672Z,0.00
2018-02-13T00:32:34.535Z,0.00
2018-02-13T00:33:34.395Z,0.00
2018-02-13T00:34:34.255Z,0.00
2018-02-13T00:35:34.117Z,0.00
2018-02-13T00:36:33.983Z,0.00
2018-02-13T00:37:33.840Z,0.00
2018-02-13T00:38:33.706Z,0.00
2018-02-13T00:39:33.562Z,0.00
2018-02-13T00:40:33.425Z,0.00
2018-02-13T00:41:33.289Z,0.00
2018-02-13T00:42:33.148Z,0.00
2018-02-13T00:43:33.012Z,0.00
2018-02-13T00:44:32.872Z,0.00
2018-02-13T00:45:32.743Z,0.00
2018-02-13T00:46:32.596Z,0.00
2018-02-13T00:47:32.461Z,0.00
2018-02-13T00:48:32.324Z,0.00
2018-02-13T00:49:32.185Z,0.00
2018-02-13T00:50:32.043Z,0.00
2018-02-13T00:51:31.906Z,0.00
2018-02-13T00:52:31.768Z,0.00
2018-02-13T00:53:31.629Z,0.00
2018-02-13T00:54:31.492Z,0.00
2018-02-13T00:55:31.355Z,0.00
2018-02-13T00:56:31.217Z,0.00
2018-02-13T00:57:31.081Z,0.00
2018-02-13T00:58:30.960Z,0.00
2018-02-13T00:59:30.803Z,0.00
2018-02-13T01:00:30.665Z,0.00
2018-02-13T01:01:30.525Z,0.00
2018-02-13T01:02:30.397Z,0.00
2018-02-13T01:03:30.249Z,0.00
2018-02-13T01:04:30.112Z,0.00
2018-02-13T01:05:29.973Z,0.00
2018-02-13T01:06:29.833Z,0.00
2018-02-13T01:07:29.696Z,0.00
2018-02-13T01:08:29.558Z,0.00
2018-02-13T01:09:29.421Z,0.00
2018-02-13T01:10:29.282Z,0.00
2018-02-13T01:11:29.141Z,0.00
2018-02-13T01:12:29.012Z,0.00
2018-02-13T01:13:28.867Z,0.00
2018-02-13T01:14:28.725Z,0.00
2018-02-13T01:15:28.591Z,0.00
2018-02-13T01:16:28.451Z,0.00
2018-02-13T01:17:28.312Z,0.00
2018-02-13T01:18:28.170Z,0.00
2018-02-13T01:19:28.032Z,0.00
2018-02-13T01:20:27.895Z,0.00
2018-02-13T01:21:27.754Z,0.00
2018-02-13T01:22:27.617Z,0.00
2018-02-13T01:23:27.479Z,0.00
2018-02-13T01:24:27.339Z,0.00
2018-02-13T01:25:27.200Z,0.00
2018-02-13T01:26:27.061Z,0.00
2018-02-13T01:27:26.921Z,0.00
2018-02-13T01:28:26.783Z,0.00
2018-02-13T01:29:26.643Z,0.00
2018-02-13T01:30:26.507Z,0.00
2018-02-13T01:31:26.367Z,0.00
2018-02-13T01:32:26.226Z,0.00
2018-02-13T01:33:26.085Z,0.00
2018-02-13T01:34:25.946Z,0.00
2018-02-13T01:35:25.809Z,0.00
2018-02-13T01:36:25.671Z,0.00
2018-02-13T01:37:25.530Z,0.00
2018-02-13T01:38:25.390Z,0.00
2018-02-13T01:39:25.249Z,0.00
2018-02-13T01:40:25.115Z,0.00
2018-02-13T01:41:24.974Z,0.00
2018-02-13T01:42:24.836Z,0.00
2018-02-13T01:43:24.693Z,0.00
2018-02-13T01:44:24.552Z,0.00
2018-02-13T01:45:24.414Z,0.00
2018-02-13T01:46:24.276Z,0.00
2018-02-13T01:47:24.136Z,0.00
2018-02-13T01:48:23.996Z,0.00
2018-02-13T01:49:23.859Z,0.00
2018-02-13T01:50:23.715Z,0.00
2018-02-13T01:51:23.577Z,0.00
2018-02-13T01:52:23.436Z,0.00
2018-02-13T01:53:23.297Z,0.00
2018-02-13T01:54:23.155Z,0.00
2018-02-13T01:55:23.020Z,0.00
2018-02-13T01:56:22.878Z,0.00
2018-02-13T01:57:22.738Z,0.00
2018-02-13T01:58:22.599Z,0.00
2018-02-13T01:59:22.462Z,0.00
2018-02-13T02:00:22.320Z,0.00
2018-02-13T02:01:22.181Z,0.00
2018-02-13T02:02:22.041Z,0.00
2018-02-13T02:03:21.900Z,0.00
2018-02-13T02:04:21.758Z,0.00
2018-02-13T02:05:21.621Z,0.00
2018-02-13T02:06:21.479Z,0.00
2018-02-13T02:07:21.340Z,0.00
2018-02-13T02:08:21.203Z,0.00
2018-02-13T02:09:21.060Z,0.00
2018-02-13T02:10:20.920Z,0.00
2018-02-13T02:11:20.783Z,0.00
2018-02-13T02:12:20.639Z,0.00
2018-02-13T02:13:20.502Z,0.00
2018-02-13T02:14:20.360Z,0.00
2018-02-13T02:15:20.220Z,0.00
2018-02-13T02:16:20.083Z,0.00
2018-02-13T02:17:19.944Z,0.00
2018-02-13T02:18:19.803Z,0.00
2018-02-13T02:19:19.666Z,0.00
2018-02-13T02:20:19.522Z,0.00
2018-02-13T02:21:19.382Z,0.00
2018-02-13T02:22:19.248Z,0.00
2018-02-13T02:23:19.105Z,0.00
2018-02-13T02:24:18.964Z,0.00
2018-02-13T02:25:18.821Z,0.00
2018-02-13T02:26:18.685Z,0.00
2018-02-13T02:27:18.544Z,0.00
2018-02-13T02:28:18.401Z,0.00
2018-02-13T02:29:18.263Z,0.00
2018-02-13T02:30:18.126Z,0.00
2018-02-13T02:31:17.984Z,0.00
2018-02-13T02:32:17.846Z,0.00
2018-02-13T02:33:17.705Z,0.00
2018-02-13T02:34:17.564Z,0.00
2018-02-13T02:35:17.425Z,0.00
2018-02-13T02:36:17.283Z,0.00
2018-02-13T02:37:17.145Z,0.00
2018-02-13T02:38:17.002Z,0.00
2018-02-13T02:39:16.866Z,0.00
2018-02-13T02:40:16.724Z,0.00
2018-02-13T02:41:16.582Z,0.00
2018-02-13T02:42:16.446Z,0.00
2018-02-13T02:43:16.303Z,0.00
2018-02-13T02:44:16.166Z,0.00
2018-02-13T02:45:16.032Z,0.00
2018-02-13T02:46:15.884Z,0.00
2018-02-13T02:47:15.743Z,0.00
2018-02-13T02:48:15.605Z,0.00
2018-02-13T02:49:15.466Z,0.00
2018-02-13T02:50:15.322Z,0.00
2018-02-13T02:51:15.199Z,0.00
2018-02-13T02:52:15.043Z,0.00
2018-02-13T02:53:14.905Z,0.00
2018-02-13T02:54:14.767Z,0.00
2018-02-13T02:55:14.622Z,0.00
2018-02-13T02:56:14.480Z,0.00
2018-02-13T02:57:14.338Z,0.00
2018-02-13T02:58:14.201Z,0.00
2018-02-13T02:59:14.061Z,0.00
2018-02-13T03:00:13.921Z,0.00
2018-02-13T03:01:13.780Z,0.00
2018-02-13T03:02:13.642Z,0.00
2018-02-13T03:03:13.497Z,0.00
2018-02-13T03:04:13.359Z,0.00
2018-02-13T03:05:13.217Z,0.00
2018-02-13T03:06:13.077Z,0.00
2018-02-13T03:07:12.936Z,0.00
2018-02-13T03:08:12.798Z,0.00
2018-02-13T03:09:12.659Z,0.00
2018-02-13T03:10:12.515Z,0.00
2018-02-13T03:11:12.375Z,0.00
2018-02-13T03:12:12.234Z,0.00
2018-02-13T03:13:12.096Z,0.00
2018-02-13T03:14:11.954Z,0.00
2018-02-13T03:15:11.811Z,0.00
2018-02-13T03:16:11.674Z,0.00
2018-02-13T03:17:11.533Z,0.00
2018-02-13T03:18:11.390Z,0.00
2018-02-13T03:19:11.256Z,0.00
2018-02-13T03:20:11.110Z,0.00
2018-02-13T03:21:10.969Z,0.00
2018-02-13T03:22:10.829Z,0.00
2018-02-13T03:23:10.686Z,0.00
2018-02-13T03:24:10.561Z,0.00
2018-02-13T03:25:10.405Z,0.00
2018-02-13T03:26:10.266Z,0.00
2018-02-13T03:27:10.124Z,0.00
2018-02-13T03:28:09.982Z,0.00
2018-02-13T03:29:09.841Z,0.00
2018-02-13T03:30:09.703Z,0.00
2018-02-13T03:31:09.559Z,0.00
2018-02-13T03:32:09.419Z,0.00
2018-02-13T03:33:09.301Z,0.00
2018-02-13T03:34:09.137Z,0.00
2018-02-13T03:35:08.998Z,0.00
2018-02-13T03:36:08.853Z,0.00
2018-02-13T03:37:08.714Z,0.00
2018-02-13T03:38:08.572Z,0.00
2018-02-13T03:39:08.431Z,0.00
2018-02-13T03:40:08.290Z,0.00
2018-02-13T03:41:08.149Z,0.00
2018-02-13T03:42:08.006Z,0.00
2018-02-13T03:43:07.867Z,0.00
2018-02-13T03:44:07.725Z,0.00
2018-02-13T03:45:07.583Z,0.00
2018-02-13T03:46:07.446Z,0.00
2018-02-13T03:47:07.301Z,0.00
2018-02-13T03:48:07.162Z,0.00
2018-02-13T03:49:07.021Z,0.00
2018-02-13T03:50:06.890Z,0.00
2018-02-13T03:51:06.739Z,0.00
2018-02-13T03:52:06.598Z,0.00
2018-02-13T03:53:06.458Z,0.00
2018-02-13T03:54:06.322Z,0.00
2018-02-13T03:55:06.178Z,0.00
2018-02-13T03:56:06.034Z,0.00
2018-02-13T03:57:05.892Z,0.00
2018-02-13T03:58:05.753Z,0.00
2018-02-13T03:59:05.608Z,0.00
2018-02-13T04:00:05.469Z,0.00
2018-02-13T04:01:05.351Z,0.00
2018-02-13T04:02:05.186Z,0.00
2018-02-13T04:03:05.045Z,0.00
2018-02-13T04:04:04.905Z,0.00
2018-02-13T04:05:04.763Z,0.00
2018-02-13T04:06:04.623Z,0.00
2018-02-13T04:07:04.480Z,0.00
2018-02-13T04:08:04.342Z,0.00
2018-02-13T04:09:04.201Z,0.00
2018-02-13T04:10:04.058Z,0.00
2018-02-13T04:11:03.917Z,0.00
2018-02-13T04:12:03.778Z,0.00
2018-02-13T04:13:03.636Z,0.00
2018-02-13T04:14:03.493Z,0.00
2018-02-13T04:15:03.357Z,0.00
2018-02-13T04:16:03.212Z,0.00
2018-02-13T04:17:03.070Z,0.00
2018-02-13T04:18:02.929Z,0.00
2018-02-13T04:19:02.789Z,0.00
2018-02-13T04:20:02.648Z,0.00
2018-02-13T04:21:02.506Z,0.00
2018-02-13T04:22:02.366Z,0.00
2018-02-13T04:23:02.223Z,0.00
2018-02-13T04:24:02.089Z,0.00
2018-02-13T04:25:01.944Z,0.00
2018-02-13T04:26:01.804Z,0.00
2018-02-13T04:27:01.660Z,0.00
2018-02-13T04:28:01.522Z,0.00
2018-02-13T04:29:01.378Z,0.00
2018-02-13T04:30:01.236Z,0.00
2018-02-13T04:31:01.094Z,0.00
2018-02-13T04:32:00.952Z,0.00
2018-02-13T04:33:00.818Z,0.00
2018-02-13T04:34:00.668Z,0.00
2018-02-13T04:35:00.528Z,0.00
2018-02-13T04:36:00.384Z,0.00
2018-02-13T04:37:00.248Z,0.00
2018-02-13T04:38:00.112Z,0.00
2018-02-13T04:38:59.965Z,0.00
2018-02-13T04:39:59.820Z,0.00
2018-02-13T04:40:59.679Z,0.00
2018-02-13T04:41:59.539Z,0.00
2018-02-13T04:42:59.395Z,0.00
2018-02-13T04:43:59.256Z,0.00
2018-02-13T04:44:59.113Z,0.00
2018-02-13T04:45:58.979Z,0.00
2018-02-13T04:46:58.831Z,0.00
2018-02-13T04:47:58.688Z,0.00
2018-02-13T04:48:58.550Z,0.00
2018-02-13T04:49:58.406Z,0.00
2018-02-13T04:50:58.265Z,0.00
2018-02-13T04:51:58.122Z,0.00
2018-02-13T04:52:57.981Z,0.00
2018-02-13T04:53:57.843Z,0.00
2018-02-13T04:54:57.699Z,0.00
2018-02-13T04:55:57.558Z,0.00
2018-02-13T04:56:57.415Z,0.00
2018-02-13T04:57:57.276Z,0.00
2018-02-13T04:58:57.133Z,0.00
2018-02-13T04:59:56.994Z,0.00
2018-02-13T05:00:56.853Z,0.00
2018-02-13T05:01:56.709Z,0.00
2018-02-13T05:02:56.570Z,0.00
2018-02-13T05:03:56.427Z,0.00
2018-02-13T05:04:56.334Z,0.00
2018-02-13T05:05:56.151Z,0.00
2018-02-13T05:06:56.003Z,0.00
2018-02-13T05:07:55.863Z,0.00
2018-02-13T05:08:55.720Z,0.00
2018-02-13T05:09:55.577Z,0.00
2018-02-13T05:10:55.441Z,0.00
2018-02-13T05:11:55.297Z,0.00
2018-02-13T05:12:55.157Z,0.00
2018-02-13T05:13:55.014Z,0.00
2018-02-13T05:14:54.875Z,0.00
2018-02-13T05:15:54.733Z,0.00
2018-02-13T05:16:54.590Z,0.00
2018-02-13T05:17:54.451Z,0.00
2018-02-13T05:18:54.403Z,0.00
2018-02-13T05:19:54.166Z,0.00
2018-02-13T05:20:54.025Z,0.00
2018-02-13T05:21:53.882Z,0.00
2018-02-13T05:22:53.741Z,0.00
2018-02-13T05:23:53.609Z,0.00
2018-02-13T05:24:53.461Z,0.00
2018-02-13T05:25:53.834Z,0.00
2018-02-13T05:26:53.178Z,0.00
2018-02-13T05:27:53.033Z,0.00
2018-02-13T05:28:52.901Z,0.00
2018-02-13T05:29:52.750Z,0.00
2018-02-13T05:30:52.610Z,0.00
2018-02-13T05:31:52.471Z,0.00
2018-02-13T05:32:52.331Z,0.00
2018-02-13T05:33:52.186Z,0.00
2018-02-13T05:34:52.046Z,0.00
2018-02-13T05:35:51.921Z,0.00
2018-02-13T05:36:51.761Z,0.00
2018-02-13T05:37:51.625Z,0.00
2018-02-13T05:38:51.558Z,0.00
2018-02-13T05:39:51.339Z,0.00
2018-02-13T05:40:51.194Z,0.00
2018-02-13T05:41:51.053Z,0.00
2018-02-13T05:42:50.909Z,0.00
2018-02-13T05:43:50.772Z,0.00
2018-02-13T05:44:50.724Z,0.00
2018-02-13T05:45:50.484Z,0.00
2018-02-13T05:46:51.010Z,0.00
2018-02-13T05:47:50.202Z,0.00
2018-02-13T05:48:50.060Z,0.00
2018-02-13T05:49:49.916Z,0.00
2018-02-13T05:50:49.777Z,0.00
2018-02-13T05:51:49.631Z,0.00
2018-02-13T05:52:49.489Z,0.00
2018-02-13T05:53:49.355Z,0.00
2018-02-13T05:54:49.206Z,0.00
2018-02-13T05:55:49.066Z,0.00
2018-02-13T05:56:48.925Z,0.00
2018-02-13T05:57:48.783Z,0.00
2018-02-13T05:58:48.639Z,0.00
2018-02-13T05:59:48.497Z,0.00
2018-02-13T06:00:48.352Z,0.00
2018-02-13T06:01:48.212Z,0.00
2018-02-13T06:02:48.070Z,0.00
2018-02-13T06:03:47.986Z,0.00
2018-02-13T06:04:47.788Z,0.00
2018-02-13T06:05:47.642Z,0.00
2018-02-13T06:06:47.499Z,0.00
2018-02-13T06:07:47.360Z,0.00
2018-02-13T06:08:47.223Z,0.00
2018-02-13T06:09:47.076Z,0.00
2018-02-13T06:10:46.933Z,0.00
2018-02-13T06:11:46.794Z,0.00
2018-02-13T06:12:46.651Z,0.00
2018-02-13T06:13:46.508Z,0.00
2018-02-13T06:14:46.365Z,0.00
2018-02-13T06:15:46.226Z,0.00
2018-02-13T06:16:46.091Z,0.00
2018-02-13T06:17:45.941Z,0.00
2018-02-13T06:18:45.798Z,0.00
2018-02-13T06:19:45.656Z,0.00
2018-02-13T06:20:45.516Z,0.00
2018-02-13T06:21:45.374Z,0.00
2018-02-13T06:22:45.232Z,0.00
2018-02-13T06:23:45.091Z,0.00
2018-02-13T06:24:44.948Z,0.00
2018-02-13T06:25:44.807Z,0.00
2018-02-13T06:26:44.664Z,0.00
2018-02-13T06:27:44.533Z,0.00
2018-02-13T06:28:44.381Z,0.00
2018-02-13T06:29:44.237Z,5.63
2018-02-13T06:30:44.096Z,5.63
2018-02-13T06:31:43.970Z,5.63
2018-02-13T06:32:43.816Z,5.63
2018-02-13T06:33:43.673Z,5.63
2018-02-13T06:34:43.529Z,5.63
2018-02-13T06:35:43.388Z,5.63
2018-02-13T06:36:43.247Z,5.63
2018-02-13T06:37:43.105Z,5.63
2018-02-13T06:38:42.966Z,5.63
2018-02-13T06:39:42.823Z,11.25
2018-02-13T06:40:42.680Z,11.25
2018-02-13T06:41:42.540Z,11.25
2018-02-13T06:42:42.392Z,11.25
2018-02-13T06:43:42.292Z,11.25
2018-02-13T06:44:42.138Z,11.25
2018-02-13T06:45:41.971Z,11.25
2018-02-13T06:46:41.825Z,11.25
2018-02-13T06:47:41.681Z,11.25
2018-02-13T06:48:42.366Z,16.88
2018-02-13T06:49:41.416Z,16.88
2018-02-13T06:50:41.307Z,16.88
2018-02-13T06:51:41.160Z,16.88
2018-02-13T06:52:40.971Z,16.88
2018-02-13T06:53:40.831Z,16.88
2018-02-13T06:54:40.690Z,16.88
2018-02-13T06:55:40.545Z,16.88
2018-02-13T06:56:40.408Z,16.88
2018-02-13T06:57:40.259Z,22.50
2018-02-13T06:58:40.117Z,22.50
2018-02-13T06:59:39.974Z,22.50
2018-02-13T07:00:39.834Z,22.50
2018-02-13T07:01:39.689Z,22.50
2018-02-13T07:02:39.551Z,22.50
2018-02-13T07:03:39.408Z,22.50
2018-02-13T07:04:39.264Z,22.50
2018-02-13T07:05:39.122Z,22.50
2018-02-13T07:06:38.981Z,22.50
2018-02-13T07:07:38.837Z,28.13
2018-02-13T07:08:38.697Z,28.13
2018-02-13T07:09:38.551Z,28.13
2018-02-13T07:10:38.412Z,28.13
2018-02-13T07:11:38.275Z,28.13
2018-02-13T07:12:38.128Z,28.13
2018-02-13T07:13:37.986Z,28.13
2018-02-13T07:14:37.844Z,28.13
2018-02-13T07:15:37.703Z,28.13
2018-02-13T07:16:37.560Z,28.13
2018-02-13T07:17:37.416Z,28.13
2018-02-13T07:18:37.277Z,33.75
2018-02-13T07:19:37.134Z,33.75
2018-02-13T07:20:36.993Z,33.75
2018-02-13T07:21:36.850Z,33.75
2018-02-13T07:22:36.707Z,33.75
2018-02-13T07:23:36.565Z,33.75
2018-02-13T07:24:36.427Z,33.75
2018-02-13T07:25:36.282Z,33.75
2018-02-13T07:26:36.141Z,33.75
2018-02-13T07:27:35.997Z,33.75
2018-02-13T07:28:35.858Z,33.75
2018-02-13T07:29:35.714Z,33.75
2018-02-13T07:30:35.574Z,33.75
2018-02-13T07:31:35.434Z,39.38
2018-02-13T07:32:35.288Z,39.38
2018-02-13T07:33:35.146Z,39.38
2018-02-13T07:34:35.005Z,39.38
2018-02-13T07:35:34.864Z,39.38
2018-02-13T07:36:34.728Z,39.38
2018-02-13T07:37:34.579Z,39.38
2018-02-13T07:38:34.443Z,39.38
2018-02-13T07:39:34.296Z,39.38
2018-02-13T07:40:34.158Z,39.38
2018-02-13T07:41:34.011Z,39.38
2018-02-13T07:42:33.871Z,39.38
2018-02-13T07:43:33.729Z,39.38
2018-02-13T07:44:33.593Z,39.38
2018-02-13T07:45:33.447Z,39.38
2018-02-13T07:46:33.305Z,45.00
2018-02-13T07:47:33.164Z,45.00
2018-02-13T07:48:33.022Z,45.00
2018-02-13T07:49:32.879Z,45.00
2018-02-13T07:50:32.764Z,45.00
2018-02-13T07:51:32.650Z,45.00
2018-02-13T07:52:32.456Z,45.00
2018-02-13T07:53:32.317Z,45.00
2018-02-13T07:54:32.174Z,45.00
2018-02-13T07:55:32.033Z,45.00
2018-02-13T07:56:31.945Z,45.00
2018-02-13T07:57:31.749Z,45.00
2018-02-13T07:58:31.608Z,45.00
2018-02-13T07:59:31.466Z,45.00
2018-02-13T08:00:31.325Z,45.00
2018-02-13T08:01:31.196Z,45.00
2018-02-13T08:02:31.042Z,45.00
2018-02-13T08:03:30.903Z,50.63
2018-02-13T08:04:30.761Z,50.63
2018-02-13T08:05:30.621Z,50.63
2018-02-13T08:06:30.479Z,50.63
2018-02-13T08:07:30.338Z,50.63
2018-02-13T08:08:30.195Z,50.63
2018-02-13T08:09:30.059Z,50.63
2018-02-13T08:10:29.914Z,50.63
2018-02-13T08:11:29.771Z,50.63
2018-02-13T08:12:29.631Z,56.25
2018-02-13T08:13:29.498Z,61.88
2018-02-13T08:14:29.410Z,73.13
2018-02-13T08:15:29.209Z,90.00
2018-02-13T08:16:29.067Z,118.13
2018-02-13T08:17:28.924Z,140.63
2018-02-13T08:18:28.786Z,135.00
2018-02-13T08:19:28.644Z,140.63
2018-02-13T08:20:28.507Z,146.25
2018-02-13T08:21:28.362Z,140.63
2018-02-13T08:22:28.225Z,140.63
2018-02-13T08:23:28.084Z,140.63
2018-02-13T08:24:27.940Z,146.25
2018-02-13T08:25:27.804Z,146.25
2018-02-13T08:26:27.661Z,146.25
2018-02-13T08:27:27.521Z,146.25
2018-02-13T08:28:27.387Z,146.25
2018-02-13T08:29:27.248Z,151.88
2018-02-13T08:30:27.107Z,151.88
2018-02-13T08:31:27.015Z,157.50
2018-02-13T08:32:26.836Z,157.50
2018-02-13T08:33:26.693Z,151.88
2018-02-13T08:34:26.556Z,157.50
2018-02-13T08:35:26.422Z,157.50
2018-02-13T08:36:26.285Z,157.50
2018-02-13T08:37:26.146Z,157.50
2018-02-13T08:38:26.009Z,157.50
2018-02-13T08:39:25.874Z,157.50
2018-02-13T08:40:25.739Z,157.50
2018-02-13T08:41:25.601Z,163.13
2018-02-13T08:42:25.468Z,163.13
2018-02-13T08:43:25.332Z,163.13
2018-02-13T08:44:25.194Z,163.13
2018-02-13T08:45:25.060Z,163.13
2018-02-13T08:46:24.925Z,163.13
2018-02-13T08:47:24.790Z,168.75
2018-02-13T08:48:24.655Z,168.75
2018-02-13T08:49:24.537Z,168.75
2018-02-13T08:50:24.384Z,168.75
2018-02-13T08:51:24.250Z,168.75
2018-02-13T08:52:24.113Z,168.75
2018-02-13T08:53:23.978Z,168.75
2018-02-13T08:54:23.844Z,168.75
2018-02-13T08:55:23.709Z,168.75
2018-02-13T08:56:23.574Z,168.75
2018-02-13T08:57:23.439Z,168.75
2018-02-13T08:58:23.302Z,168.75
2018-02-13T08:59:23.167Z,168.75
2018-02-13T09:00:23.035Z,174.38
2018-02-13T09:01:22.902Z,174.38
2018-02-13T09:02:22.762Z,174.38
2018-02-13T09:03:22.627Z,174.38
2018-02-13T09:04:22.493Z,174.38
2018-02-13T09:05:22.369Z,174.38
2018-02-13T09:06:22.224Z,180.00
2018-02-13T09:07:22.094Z,180.00
2018-02-13T09:08:21.954Z,180.00
2018-02-13T09:09:21.820Z,180.00
2018-02-13T09:10:22.376Z,180.00
2018-02-13T09:11:21.550Z,185.63
2018-02-13T09:12:21.415Z,185.63
2018-02-13T09:13:21.279Z,185.63
2018-02-13T09:14:21.146Z,185.63
2018-02-13T09:15:21.014Z,185.63
2018-02-13T09:16:20.877Z,191.25
2018-02-13T09:17:20.742Z,191.25
2018-02-13T09:18:20.605Z,191.25
2018-02-13T09:19:20.473Z,191.25
2018-02-13T09:20:20.369Z,191.25
2018-02-13T09:21:20.201Z,191.25
2018-02-13T09:22:20.113Z,191.25
2018-02-13T09:23:19.934Z,191.25
2018-02-13T09:24:19.802Z,191.25
2018-02-13T09:25:19.667Z,191.25
2018-02-13T09:26:19.533Z,191.25
2018-02-13T09:27:19.398Z,191.25
2018-02-13T09:28:19.266Z,196.88
2018-02-13T09:29:19.133Z,196.88
2018-02-13T09:30:18.998Z,202.50
2018-02-13T09:31:18.865Z,196.88
2018-02-13T09:32:18.733Z,191.25
2018-02-13T09:33:18.598Z,191.25
2018-02-13T09:34:18.463Z,196.88
2018-02-13T09:35:18.330Z,196.88
2018-02-13T09:36:18.200Z,196.88
2018-02-13T09:37:18.065Z,196.88
2018-02-13T09:38:17.935Z,196.88
2018-02-13T09:39:17.800Z,196.88
2018-02-13T09:40:17.689Z,196.88
2018-02-13T09:41:17.532Z,196.88
2018-02-13T09:42:17.397Z,196.88
2018-02-13T09:43:17.265Z,196.88
2018-02-13T09:44:17.133Z,196.88
2018-02-13T09:45:16.996Z,196.88
2018-02-13T09:46:16.862Z,196.88
2018-02-13T09:47:16.731Z,196.88
2018-02-13T09:48:16.596Z,202.50
2018-02-13T09:49:16.461Z,196.88
2018-02-13T09:50:16.328Z,202.50
2018-02-13T09:51:16.194Z,202.50
2018-02-13T09:52:16.063Z,202.50
2018-02-13T09:53:15.931Z,202.50
2018-02-13T09:54:15.797Z,202.50
2018-02-13T09:55:15.662Z,202.50
2018-02-13T09:56:15.527Z,202.50
2018-02-13T09:57:15.393Z,202.50
2018-02-13T09:58:15.260Z,202.50
2018-02-13T09:59:15.150Z,208.13
2018-02-13T10:00:14.995Z,208.13
2018-02-13T10:01:14.856Z,208.13
2018-02-13T10:02:14.726Z,213.75
2018-02-13T10:03:14.629Z,213.75
2018-02-13T10:04:14.459Z,213.75
2018-02-13T10:05:14.323Z,213.75
2018-02-13T10:06:14.192Z,213.75
2018-02-13T10:07:14.057Z,213.75
2018-02-13T10:08:13.922Z,219.38
2018-02-13T10:09:13.789Z,219.38
2018-02-13T10:10:13.657Z,219.38
2018-02-13T10:11:13.522Z,219.38
2018-02-13T10:12:13.388Z,219.38
2018-02-13T10:13:13.253Z,219.38
2018-02-13T10:14:13.131Z,219.38
2018-02-13T10:15:12.983Z,219.38
2018-02-13T10:16:12.851Z,219.38
2018-02-13T10:17:12.718Z,225.00
2018-02-13T10:18:12.585Z,230.63
2018-02-13T10:19:12.449Z,225.00
2018-02-13T10:20:12.315Z,225.00
2018-02-13T10:21:12.240Z,230.63
2018-02-13T10:22:12.049Z,230.63
2018-02-13T10:23:11.916Z,230.63
2018-02-13T10:24:11.780Z,236.25
2018-02-13T10:25:11.647Z,236.25
2018-02-13T10:26:11.514Z,236.25
2018-02-13T10:27:11.387Z,236.25
2018-02-13T10:28:11.244Z,241.88
2018-02-13T10:29:11.112Z,241.88
2018-02-13T10:30:10.980Z,241.88
2018-02-13T10:31:10.846Z,241.88
2018-02-13T10:32:10.715Z,241.88
2018-02-13T10:33:10.580Z,247.50
2018-02-13T10:34:10.445Z,247.50
2018-02-13T10:35:10.313Z,253.13
2018-02-13T10:36:10.182Z,253.13
2018-02-13T10:37:10.048Z,253.13
2018-02-13T10:38:09.919Z,253.13
2018-02-13T10:39:09.784Z,253.13
2018-02-13T10:40:09.651Z,253.13
2018-02-13T10:41:09.519Z,253.13
2018-02-13T10:42:09.385Z,253.13
2018-02-13T10:43:09.252Z,253.13
2018-02-13T10:44:09.121Z,253.13
2018-02-13T10:45:08.990Z,253.13
2018-02-13T10:46:08.854Z,253.13
2018-02-13T10:47:08.723Z,253.13
2018-02-13T10:48:08.591Z,253.13
2018-02-13T10:49:08.455Z,253.13
2018-02-13T10:50:08.325Z,253.13
2018-02-13T10:51:08.191Z,253.13
2018-02-13T10:52:08.074Z,253.13
2018-02-13T10:53:07.928Z,258.75
2018-02-13T10:54:07.797Z,253.13
2018-02-13T10:55:07.670Z,253.13
2018-02-13T10:56:07.534Z,253.13
2018-02-13T10:57:07.401Z,253.13
2018-02-13T10:58:07.270Z,253.13
2018-02-13T10:59:07.138Z,253.13
2018-02-13T11:00:07.006Z,253.13
2018-02-13T11:01:06.874Z,253.13
2018-02-13T11:02:06.743Z,253.13
2018-02-13T11:03:06.610Z,253.13
2018-02-13T11:04:06.478Z,253.13
2018-02-13T11:05:06.345Z,253.13
2018-02-13T11:06:06.223Z,253.13
2018-02-13T11:07:06.081Z,253.13
2018-02-13T11:08:05.953Z,253.13
2018-02-13T11:09:05.819Z,258.75
2018-02-13T11:10:05.685Z,253.13
2018-02-13T11:11:05.558Z,253.13
2018-02-13T11:12:05.425Z,253.13
2018-02-13T11:13:05.291Z,253.13
2018-02-13T11:14:05.165Z,253.13
2018-02-13T11:15:05.031Z,247.50
2018-02-13T11:16:04.897Z,247.50
2018-02-13T11:17:04.767Z,253.13
2018-02-13T11:18:04.639Z,253.13
2018-02-13T11:19:04.504Z,253.13
2018-02-13T11:20:04.375Z,253.13
2018-02-13T11:21:04.241Z,253.13
2018-02-13T11:22:04.110Z,253.13
2018-02-13T11:23:03.983Z,253.13
2018-02-13T11:24:03.846Z,253.13
2018-02-13T11:25:03.714Z,253.13
2018-02-13T11:26:03.584Z,253.13
2018-02-13T11:27:03.450Z,247.50
2018-02-13T11:28:03.322Z,247.50
2018-02-13T11:29:03.186Z,247.50
2018-02-13T11:30:03.056Z,247.50
2018-02-13T11:31:02.922Z,253.13
2018-02-13T11:32:02.793Z,241.88
2018-02-13T11:33:02.660Z,241.88
2018-02-13T11:34:02.529Z,241.88
2018-02-13T11:35:02.397Z,241.88
2018-02-13T11:36:02.273Z,241.88
2018-02-13T11:37:02.134Z,241.88
2018-02-13T11:38:02.002Z,241.88
2018-02-13T11:39:01.871Z,241.88
2018-02-13T11:40:01.737Z,236.25
2018-02-13T11:41:01.608Z,236.25
2018-02-13T11:42:01.476Z,236.25
2018-02-13T11:43:01.344Z,241.88
2018-02-13T11:44:01.214Z,241.88
2018-02-13T11:45:01.083Z,241.88
2018-02-13T11:46:00.955Z,241.88
2018-02-13T11:47:00.827Z,241.88
2018-02-13T11:48:00.688Z,241.88
2018-02-13T11:49:00.558Z,241.88
2018-02-13T11:50:00.426Z,241.88
2018-02-13T11:51:00.299Z,241.88
2018-02-13T11:52:00.163Z,236.25
2018-02-13T11:53:00.037Z,241.88
2018-02-13T11:53:59.900Z,241.88
2018-02-13T11:54:59.770Z,241.88
2018-02-13T11:55:59.636Z,236.25
2018-02-13T11:56:59.511Z,236.25
2018-02-13T11:57:59.372Z,236.25
2018-02-13T11:58:59.239Z,236.25
2018-02-13T11:59:59.106Z,236.25
2018-02-13T12:00:58.977Z,236.25
2018-02-13T12:01:58.844Z,241.88
2018-02-13T12:02:58.711Z,241.88
2018-02-13T12:03:58.581Z,236.25
2018-02-13T12:04:58.449Z,241.88
2018-02-13T12:05:58.318Z,241.88
2018-02-13T12:06:58.186Z,236.25
2018-02-13T12:07:58.054Z,236.25
2018-02-13T12:08:57.919Z,236.25
2018-02-13T12:09:57.790Z,241.88
2018-02-13T12:10:57.658Z,236.25
2018-02-13T12:11:57.526Z,236.25
2018-02-13T12:12:57.393Z,236.25
2018-02-13T12:13:57.263Z,236.25
2018-02-13T12:14:57.132Z,236.25
2018-02-13T12:15:57.001Z,236.25
2018-02-13T12:16:56.874Z,236.25
2018-02-13T12:17:56.736Z,236.25
2018-02-13T12:18:56.606Z,236.25
2018-02-13T12:19:56.474Z,236.25
2018-02-13T12:20:56.344Z,236.25
2018-02-13T12:21:56.212Z,236.25
2018-02-13T12:22:56.081Z,236.25
2018-02-13T12:23:55.958Z,236.25
2018-02-13T12:24:55.816Z,236.25
2018-02-13T12:25:55.686Z,236.25
2018-02-13T12:26:55.555Z,236.25
2018-02-13T12:27:55.426Z,230.63
2018-02-13T12:28:55.292Z,230.63
2018-02-13T12:29:55.163Z,230.63
2018-02-13T12:30:55.036Z,230.63
2018-02-13T12:31:54.900Z,230.63
2018-02-13T12:32:54.770Z,230.63
2018-02-13T12:33:54.636Z,230.63
2018-02-13T12:34:54.507Z,225.00
2018-02-13T12:35:54.376Z,225.00
2018-02-13T12:36:54.242Z,225.00
2018-02-13T12:37:54.113Z,225.00
2018-02-13T12:38:53.982Z,230.63
2018-02-13T12:39:53.850Z,230.63
2018-02-13T12:40:53.720Z,230.63
2018-02-13T12:41:53.588Z,230.63
2018-02-13T12:42:53.479Z,230.63
2018-02-13T12:43:53.328Z,230.63
2018-02-13T12:44:53.195Z,230.63
2018-02-13T12:45:53.069Z,225.00
2018-02-13T12:46:52.938Z,225.00
2018-02-13T12:47:52.800Z,225.00
2018-02-13T12:48:52.669Z,225.00
2018-02-13T12:49:52.539Z,225.00
2018-02-13T12:50:52.408Z,225.00
2018-02-13T12:51:52.277Z,219.38
2018-02-13T12:52:52.144Z,219.38
2018-02-13T12:53:52.018Z,225.00
2018-02-13T12:54:51.879Z,225.00